Time;durP1;ratioP1;P1;durP2;ratioP2;P2;SDS_P1;SDS_P2;PMS_P1;PMS_P2;Temp;Humidity;BMP_temperature;BMP_pressure;BME280_temperature;BME280_humidity;BME280_pressure;Samples;Min_cycle;Max_cycle;Signal;HPM_P1;HPM_P2
2023/12/14 04:00:54;;;;;;;0.60;0.60;;;24.00;32.20;;;;;;6029885;22;46095;-89
2023/12/14 04:03:21;;;;;;;1.80;0.57;;;24.00;32.30;;;;;;4997150;28;45334;-80
2023/12/14 04:05:48;;;;;;;0.93;0.60;;;24.00;32.30;;;;;;5022864;28;45385;-79
2023/12/14 04:08:14;;;;;;;1.00;0.60;;;24.00;32.30;;;;;;5006257;28;45161;-82
2023/12/14 04:10:41;;;;;;;0.85;0.65;;;24.00;32.30;;;;;;5026187;28;45606;-81
2023/12/14 04:13:10;;;;;;;1.17;0.70;;;24.00;32.30;;;;;;5010506;28;46762;-80
2023/12/14 04:15:42;;;;;;;0.88;0.60;;;24.00;32.30;;;;;;5008808;28;45159;-80
2023/12/14 04:18:08;;;;;;;1.23;0.70;;;24.00;32.30;;;;;;5008946;28;45064;-80
2023/12/14 04:20:35;;;;;;;1.20;0.63;;;24.00;32.30;;;;;;5004583;28;45084;-78
2023/12/14 04:23:01;;;;;;;1.07;0.63;;;24.00;32.30;;;;;;4975041;28;45384;-80
2023/12/14 04:25:32;;;;;;;0.60;0.60;;;23.90;32.30;;;;;;4995175;28;44838;-81
2023/12/14 04:28:00;;;;;;;1.10;0.80;;;24.00;32.30;;;;;;4976333;28;45214;-81
2023/12/14 04:32:57;;;;;;;1.02;0.70;;;23.90;32.30;;;;;;4961900;28;45573;-43
2023/12/14 04:35:23;;;;;;;0.80;0.60;;;23.90;32.30;;;;;;4956423;28;45411;-43
2023/12/14 04:37:48;;;;;;;0.88;0.60;;;23.90;32.30;;;;;;4945155;28;45394;-42
2023/12/14 04:40:14;;;;;;;0.80;0.60;;;23.90;32.30;;;;;;4961893;28;46279;-41
2023/12/14 04:42:39;;;;;;;1.65;0.80;;;23.90;32.30;;;;;;4966691;28;47479;-43
2023/12/14 04:45:11;;;;;;;1.20;0.60;;;23.90;32.30;;;;;;4966657;28;45327;-40
2023/12/14 04:47:36;;;;;;;1.35;0.70;;;23.90;32.30;;;;;;4942279;28;45504;-42
2023/12/14 04:50:03;;;;;;;1.23;0.60;;;23.90;32.30;;;;;;4966347;28;45535;-43
2023/12/14 04:52:28;;;;;;;0.93;0.60;;;23.90;32.30;;;;;;4914943;28;46675;-42
2023/12/14 04:54:54;;;;;;;1.30;0.80;;;23.90;32.30;;;;;;4953848;28;45843;-43
2023/12/14 04:57:19;;;;;;;1.13;0.60;;;23.80;32.30;;;;;;4957910;28;45512;-42
2023/12/14 04:59:45;;;;;;;0.93;0.63;;;23.80;32.30;;;;;;4969119;28;45705;-43
2023/12/14 05:02:10;;;;;;;1.70;0.97;;;23.90;32.30;;;;;;4941650;28;45284;-41
2023/12/14 05:04:36;;;;;;;1.10;0.70;;;23.80;32.30;;;;;;4968290;28;45350;-43
2023/12/14 05:07:02;;;;;;;0.70;0.70;;;23.90;32.30;;;;;;4953396;28;46004;-42
2023/12/14 05:09:28;;;;;;;1.25;0.90;;;23.80;32.30;;;;;;4940847;28;45634;-40
2023/12/14 05:14:21;;;;;;;1.70;0.80;;;23.80;32.30;;;;;;4985199;28;45158;-40
2023/12/14 05:16:47;;;;;;;1.50;0.90;;;23.80;32.30;;;;;;4935478;28;45693;-42
2023/12/14 05:19:12;;;;;;;1.47;0.80;;;23.80;32.30;;;;;;4981890;28;45951;-43
2023/12/14 05:21:38;;;;;;;1.27;0.80;;;23.80;32.30;;;;;;4967886;28;45706;-42
2023/12/14 05:24:04;;;;;;;1.90;0.80;;;23.80;32.40;;;;;;4970599;28;45238;-42
2023/12/14 05:26:30;;;;;;;1.02;0.70;;;23.80;32.30;;;;;;4946641;28;45576;-40
2023/12/14 05:28:56;;;;;;;1.42;0.88;;;23.80;32.30;;;;;;4968422;28;45501;-43
2023/12/14 05:31:21;;;;;;;1.40;0.80;;;23.70;32.30;;;;;;4923299;28;45597;-41
2023/12/14 05:33:48;;;;;;;2.58;0.90;;;23.70;32.30;;;;;;4967207;28;44906;-42
2023/12/14 05:36:13;;;;;;;1.10;0.80;;;23.70;32.30;;;;;;4957277;28;45234;-42
2023/12/14 05:38:39;;;;;;;1.27;0.88;;;23.70;32.30;;;;;;4967520;28;45565;-42
2023/12/14 05:41:05;;;;;;;1.10;0.90;;;23.70;32.90;;;;;;4952610;28;45597;-43
2023/12/14 05:43:30;;;;;;;1.40;0.80;;;23.70;32.30;;;;;;4953875;28;44665;-41
2023/12/14 05:45:56;;;;;;;1.70;0.88;;;23.70;32.30;;;;;;4939110;28;45483;-42
2023/12/14 05:48:22;;;;;;;1.30;0.90;;;23.70;32.30;;;;;;4933384;28;45293;-41
2023/12/14 05:50:47;;;;;;;1.30;0.80;;;23.70;32.30;;;;;;4951845;28;45892;-42
2023/12/14 05:53:13;;;;;;;1.83;1.00;;;23.70;32.30;;;;;;4945428;28;45523;-42
2023/12/14 05:55:40;;;;;;;1.40;0.87;;;23.70;32.30;;;;;;4958083;28;45482;-42
2023/12/14 05:58:06;;;;;;;1.48;0.70;;;23.70;32.30;;;;;;4964926;28;45545;-42
2023/12/14 06:00:33;;;;;;;1.80;1.03;;;23.70;32.40;;;;;;4953194;28;45961;-42
2023/12/14 06:02:58;;;;;;;1.40;0.80;;;23.70;32.30;;;;;;4949060;28;45212;-42
2023/12/14 06:05:24;;;;;;;1.90;0.80;;;23.70;32.30;;;;;;4955202;28;45668;-42
2023/12/14 06:07:51;;;;;;;1.33;0.80;;;23.70;32.30;;;;;;4963599;28;60573;-42
2023/12/14 06:10:17;;;;;;;1.50;0.93;;;23.60;32.90;;;;;;4963482;28;45548;-41
2023/12/14 06:12:42;;;;;;;0.90;0.80;;;23.70;32.40;;;;;;4968857;28;45346;-42
2023/12/14 06:15:11;;;;;;;1.60;0.90;;;23.60;32.30;;;;;;4962465;28;45740;-43
2023/12/14 06:17:39;;;;;;;1.83;1.00;;;23.60;32.30;;;;;;4958277;28;45440;-42
2023/12/14 06:20:08;;;;;;;1.70;0.98;;;23.60;32.40;;;;;;4952374;28;46411;-43
2023/12/14 06:22:36;;;;;;;1.40;0.95;;;23.60;32.30;;;;;;4928730;28;45564;-42
2023/12/14 06:25:03;;;;;;;1.35;0.88;;;23.60;32.40;;;;;;4966275;28;44661;-42
2023/12/14 06:27:33;;;;;;;1.30;0.90;;;23.60;32.40;;;;;;4948611;28;45528;-41
2023/12/14 06:29:59;;;;;;;1.80;0.90;;;23.60;32.40;;;;;;4967602;28;45639;-42
2023/12/14 06:32:24;;;;;;;1.67;1.00;;;23.60;32.40;;;;;;4953306;28;45056;-42
2023/12/14 06:34:50;;;;;;;1.38;0.88;;;23.60;32.40;;;;;;4954197;28;45544;-41
2023/12/14 06:37:15;;;;;;;1.60;0.90;;;23.60;32.40;;;;;;4954297;28;45076;-42
2023/12/14 06:39:41;;;;;;;1.48;0.90;;;23.50;32.30;;;;;;4971211;28;45885;-42
2023/12/14 06:42:07;;;;;;;2.60;1.10;;;23.50;32.30;;;;;;4958385;28;45025;-41
2023/12/14 06:44:32;;;;;;;1.40;0.90;;;23.50;32.30;;;;;;4971634;28;45820;-43
2023/12/14 06:46:58;;;;;;;1.40;1.00;;;23.50;32.40;;;;;;4941543;28;45975;-41
2023/12/14 06:49:24;;;;;;;1.70;0.83;;;23.50;32.30;;;;;;4943484;28;45792;-42
2023/12/14 06:51:50;;;;;;;1.55;0.90;;;23.50;32.40;;;;;;4945401;28;45659;-41
2023/12/14 06:54:15;;;;;;;1.23;0.90;;;23.50;32.40;;;;;;4966714;28;45199;-41
2023/12/14 06:56:41;;;;;;;1.30;0.95;;;23.50;32.40;;;;;;4960891;28;45125;-41
2023/12/14 06:59:06;;;;;;;1.20;0.90;;;23.50;32.40;;;;;;4943836;28;45283;-42
2023/12/14 07:01:32;;;;;;;1.70;1.10;;;23.50;32.40;;;;;;4950033;28;45316;-42
2023/12/14 07:03:57;;;;;;;2.27;1.17;;;23.50;32.40;;;;;;4970640;28;45225;-42
2023/12/14 07:06:23;;;;;;;2.20;1.23;;;23.50;32.40;;;;;;4962445;28;45556;-41
2023/12/14 07:08:48;;;;;;;1.70;1.10;;;23.50;32.40;;;;;;4951314;28;45256;-42
2023/12/14 07:11:14;;;;;;;1.70;0.90;;;23.40;32.40;;;;;;4941601;28;45244;-42
2023/12/14 07:13:40;;;;;;;2.87;1.30;;;23.50;32.40;;;;;;4969682;28;45867;-42
2023/12/14 07:16:07;;;;;;;1.80;1.23;;;23.50;32.50;;;;;;4901604;28;48812;-41
2023/12/14 07:18:34;;;;;;;1.63;1.30;;;23.50;32.40;;;;;;4966671;28;45742;-42
2023/12/14 07:20:59;;;;;;;2.20;1.08;;;23.50;32.40;;;;;;4942971;28;45760;-42
2023/12/14 07:23:26;;;;;;;1.57;1.10;;;23.40;32.40;;;;;;4976679;28;45263;-42
2023/12/14 07:25:52;;;;;;;1.75;1.10;;;23.40;32.40;;;;;;4951623;28;45744;-41
2023/12/14 07:28:17;;;;;;;1.70;1.30;;;23.40;32.40;;;;;;4965172;28;45376;-42
2023/12/14 07:30:44;;;;;;;1.98;1.30;;;23.40;32.40;;;;;;4936420;28;45233;-41
2023/12/14 07:33:09;;;;;;;1.95;1.20;;;23.40;32.40;;;;;;4949365;28;45040;-42
2023/12/14 07:35:35;;;;;;;1.97;1.43;;;23.40;32.50;;;;;;4967378;28;45767;-41
2023/12/14 07:38:01;;;;;;;1.90;1.25;;;23.40;32.40;;;;;;4950525;28;45765;-42
2023/12/14 07:40:28;;;;;;;2.22;1.42;;;23.40;32.40;;;;;;4962646;28;45279;-42
2023/12/14 07:42:55;;;;;;;2.38;1.50;;;23.40;32.50;;;;;;4953852;28;45824;-42
2023/12/14 07:45:20;;;;;;;1.73;1.60;;;23.40;32.40;;;;;;4936468;28;46175;-42
2023/12/14 07:47:46;;;;;;;3.37;1.87;;;23.40;32.40;;;;;;4949034;28;46702;-41
2023/12/14 07:50:12;;;;;;;2.75;1.73;;;23.40;32.50;;;;;;4961832;28;45734;-41
2023/12/14 07:52:37;;;;;;;2.42;1.63;;;23.30;32.50;;;;;;4969656;28;45244;-41
2023/12/14 07:55:07;;;;;;;2.10;1.50;;;23.30;32.40;;;;;;4967669;28;45279;-43
2023/12/14 07:57:33;;;;;;;3.47;1.95;;;23.30;32.40;;;;;;4965247;28;46912;-42
2023/12/14 07:59:58;;;;;;;2.00;1.70;;;23.30;32.40;;;;;;4970296;28;45645;-42
2023/12/14 08:02:24;;;;;;;2.15;1.85;;;23.30;32.40;;;;;;4933438;28;45857;-41
2023/12/14 08:04:49;;;;;;;1.92;1.65;;;23.30;32.40;;;;;;4991265;28;45492;-42
2023/12/14 08:07:15;;;;;;;2.80;1.77;;;23.40;32.50;;;;;;4977543;28;45146;-41
2023/12/14 08:09:40;;;;;;;2.20;1.80;;;23.40;32.50;;;;;;4994014;28;45357;-41
2023/12/14 08:12:06;;;;;;;3.00;1.87;;;23.40;32.50;;;;;;4973248;28;45280;-41
2023/12/14 08:14:35;;;;;;;2.47;1.83;;;23.40;32.50;;;;;;4975090;28;44641;-42
2023/12/14 08:17:01;;;;;;;2.33;1.48;;;23.40;33.10;;;;;;4937263;28;47023;-41
2023/12/14 08:19:28;;;;;;;1.75;1.63;;;23.40;32.50;;;;;;4955582;28;45257;-41
2023/12/14 08:21:54;;;;;;;2.90;2.00;;;23.40;32.50;;;;;;4978959;28;45703;-42
2023/12/14 08:24:19;;;;;;;2.27;1.80;;;23.40;32.50;;;;;;4988928;28;45723;-41
2023/12/14 08:26:45;;;;;;;2.30;2.10;;;23.40;32.50;;;;;;4977184;28;45462;-41
2023/12/14 08:29:10;;;;;;;3.03;1.87;;;23.50;32.50;;;;;;4986062;28;45518;-42
2023/12/14 08:31:36;;;;;;;2.80;2.00;;;23.50;32.50;;;;;;4977253;28;45432;-42
2023/12/14 08:34:03;;;;;;;1.73;1.60;;;23.50;32.50;;;;;;4971708;28;45438;-41
2023/12/14 08:36:29;;;;;;;2.13;1.70;;;23.50;32.50;;;;;;4954546;28;49602;-42
2023/12/14 08:38:54;;;;;;;3.67;1.80;;;23.50;32.50;;;;;;4971016;28;45835;-43
2023/12/14 08:41:20;;;;;;;2.08;1.85;;;23.50;32.50;;;;;;4977053;28;45440;-43
2023/12/14 08:43:46;;;;;;;2.60;1.83;;;23.50;32.40;;;;;;4991565;28;47266;-42
2023/12/14 08:46:11;;;;;;;2.25;1.88;;;23.50;32.40;;;;;;4971323;28;45524;-42
2023/12/14 08:48:37;;;;;;;2.53;2.05;;;23.50;32.40;;;;;;4970674;28;45678;-41
2023/12/14 08:51:04;;;;;;;3.72;1.75;;;23.60;32.50;;;;;;4965711;28;45887;-42
2023/12/14 08:53:29;;;;;;;1.83;1.52;;;23.60;32.50;;;;;;4990008;28;45506;-40
2023/12/14 08:55:55;;;;;;;2.30;1.90;;;23.60;32.50;;;;;;4978383;28;45888;-42
2023/12/14 08:58:21;;;;;;;2.27;1.70;;;23.60;32.40;;;;;;4986334;28;45065;-40
2023/12/14 09:00:46;;;;;;;2.87;1.87;;;23.60;32.40;;;;;;4965849;28;44966;-41
2023/12/14 09:03:12;;;;;;;3.07;1.53;;;23.60;32.40;;;;;;4966333;28;45394;-41
2023/12/14 09:05:41;;;;;;;3.00;1.83;;;23.70;32.40;;;;;;4959623;28;45251;-42
2023/12/14 09:08:07;;;;;;;2.92;1.58;;;23.70;32.40;;;;;;4987273;28;45157;-41
2023/12/14 09:10:33;;;;;;;2.90;1.70;;;23.70;32.40;;;;;;4980910;28;45296;-41
2023/12/14 09:13:00;;;;;;;1.98;1.63;;;23.70;32.40;;;;;;4993313;28;45407;-41
2023/12/14 09:15:25;;;;;;;2.28;1.60;;;23.70;32.30;;;;;;4975517;28;45373;-41
2023/12/14 09:17:51;;;;;;;2.13;1.48;;;23.70;32.30;;;;;;4977135;28;45050;-42
2023/12/14 09:20:16;;;;;;;2.47;1.45;;;23.80;32.40;;;;;;4950795;28;46279;-42
2023/12/14 09:22:42;;;;;;;2.65;1.73;;;23.80;32.40;;;;;;4979011;28;44934;-42
2023/12/14 09:25:09;;;;;;;3.03;1.70;;;23.80;32.40;;;;;;4984750;28;45455;-43
2023/12/14 09:27:35;;;;;;;2.25;1.52;;;23.80;32.30;;;;;;4966570;28;44820;-41
2023/12/14 09:30:00;;;;;;;1.83;1.40;;;23.80;32.30;;;;;;4971179;28;45647;-43
2023/12/14 09:32:26;;;;;;;1.87;1.60;;;23.90;32.30;;;;;;4967655;28;47115;-41
2023/12/14 09:34:51;;;;;;;1.80;1.50;;;23.90;32.30;;;;;;4954031;28;45422;-41
2023/12/14 09:37:17;;;;;;;1.80;1.40;;;23.90;32.30;;;;;;4971851;28;45500;-42
2023/12/14 09:39:43;;;;;;;2.47;1.50;;;24.00;32.30;;;;;;4984305;28;46529;-41
2023/12/14 09:42:08;;;;;;;1.63;1.33;;;24.00;32.30;;;;;;4977399;28;45282;-42
2023/12/14 09:44:35;;;;;;;3.87;1.70;;;24.00;32.30;;;;;;4991562;28;45249;-42
2023/12/14 09:47:00;;;;;;;1.70;1.30;;;24.00;32.20;;;;;;4942901;28;45926;-42
2023/12/14 09:49:30;;;;;;;2.45;1.30;;;24.00;32.20;;;;;;4987875;28;45402;-41
2023/12/14 09:51:59;;;;;;;3.10;1.50;;;24.10;32.20;;;;;;4942287;28;46368;-42
2023/12/14 09:54:27;;;;;;;2.28;1.40;;;24.10;32.20;;;;;;4982754;28;45884;-42
2023/12/14 09:56:53;;;;;;;1.83;1.33;;;24.10;32.20;;;;;;4958664;28;45627;-40
2023/12/14 09:59:19;;;;;;;2.60;1.40;;;24.10;32.20;;;;;;4988771;28;45332;-42
2023/12/14 10:01:45;;;;;;;2.03;1.60;;;24.10;32.10;;;;;;4970876;28;45521;-43
2023/12/14 10:04:14;;;;;;;2.10;1.40;;;24.10;32.10;;;;;;4985880;28;45614;-43
2023/12/14 10:06:41;;;;;;;2.00;1.35;;;24.20;32.20;;;;;;4944607;28;46521;-43
2023/12/14 10:09:13;;;;;;;2.08;1.40;;;24.20;32.20;;;;;;4986973;28;46678;-41
2023/12/14 10:11:39;;;;;;;2.33;1.40;;;24.20;32.10;;;;;;4960282;28;44670;-42
2023/12/14 10:14:26;;;;;;;1.98;1.55;;;24.30;32.10;;;;;;4994322;28;45236;-41
2023/12/14 10:16:52;;;;;;;1.90;1.50;;;24.30;32.10;;;;;;4945740;28;45552;-41
2023/12/14 10:19:18;;;;;;;3.67;1.50;;;24.40;32.10;;;;;;4987046;28;45701;-42
2023/12/14 10:21:44;;;;;;;2.60;1.63;;;24.40;32.10;;;;;;4941179;28;45838;-45
2023/12/14 10:24:09;;;;;;;1.67;1.30;;;24.40;32.10;;;;;;4959659;28;45272;-42
2023/12/14 10:26:35;;;;;;;2.40;1.33;;;24.40;32.10;;;;;;4940276;28;46333;-43
2023/12/14 10:29:04;;;;;;;1.57;1.33;;;24.40;32.00;;;;;;4974405;28;45864;-42
2023/12/14 10:31:37;;;;;;;3.17;1.60;;;24.40;32.00;;;;;;4948246;28;45273;-42
2023/12/14 10:34:06;;;;;;;1.45;1.30;;;24.50;31.90;;;;;;4985019;28;46030;-41
2023/12/14 10:36:32;;;;;;;1.30;1.20;;;24.50;31.90;;;;;;4975539;28;45469;-42
2023/12/14 10:38:58;;;;;;;1.60;1.30;;;24.60;31.90;;;;;;4970706;28;46520;-41
2023/12/14 10:41:24;;;;;;;1.90;1.40;;;24.60;31.80;;;;;;4960637;28;45261;-41
2023/12/14 10:43:50;;;;;;;2.60;1.30;;;24.70;31.90;;;;;;4990549;28;45492;-42
2023/12/14 10:46:16;;;;;;;1.90;1.20;;;24.70;31.80;;;;;;4951074;28;47164;-44
2023/12/14 10:48:44;;;;;;;2.10;1.23;;;24.80;31.80;;;;;;4950285;28;45689;-41
2023/12/14 10:51:13;;;;;;;1.80;1.13;;;24.80;31.80;;;;;;4961486;28;46216;-41
2023/12/14 10:53:38;;;;;;;3.50;1.30;;;24.80;31.80;;;;;;4960508;28;50976;-39
2023/12/14 10:56:09;;;;;;;1.90;1.23;;;24.80;31.70;;;;;;4952631;28;45579;-39
2023/12/14 10:58:48;;;;;;;1.90;1.20;;;24.90;31.70;;;;;;4978491;28;45392;-39
2023/12/14 11:01:18;;;;;;;1.23;1.10;;;24.90;31.70;;;;;;4973133;28;45512;-39
2023/12/14 11:03:44;;;;;;;1.23;1.00;;;24.90;31.60;;;;;;4940664;28;45425;-39
2023/12/14 11:06:25;;;;;;;1.60;1.17;;;24.90;31.60;;;;;;4972872;28;45581;-39
2023/12/14 11:08:55;;;;;;;2.20;1.27;;;25.00;31.60;;;;;;4991651;28;45375;-39
2023/12/14 11:11:21;;;;;;;1.37;0.90;;;25.00;31.60;;;;;;4979900;28;45882;-39
2023/12/14 11:13:52;;;;;;;1.65;1.00;;;25.00;31.50;;;;;;4992733;28;46104;-39
2023/12/14 11:16:20;;;;;;;2.53;1.30;;;25.10;31.60;;;;;;4970518;28;46270;-39
2023/12/14 11:18:45;;;;;;;1.33;1.00;;;25.10;31.50;;;;;;4972589;28;45785;-39
2023/12/14 11:21:11;;;;;;;1.47;1.10;;;25.10;31.60;;;;;;4965426;28;45229;-38
2023/12/14 11:23:38;;;;;;;1.67;0.93;;;25.10;31.50;;;;;;4955497;28;46042;-38
2023/12/14 11:26:09;;;;;;;1.50;0.85;;;25.10;31.40;;;;;;4974714;28;45326;-39
2023/12/14 11:28:41;;;;;;;1.92;1.08;;;25.10;31.40;;;;;;4962291;28;45613;-39
2023/12/14 11:31:10;;;;;;;1.25;0.88;;;25.20;31.50;;;;;;4966696;28;45528;-38
2023/12/14 11:33:36;;;;;;;1.75;1.05;;;25.20;31.50;;;;;;4968084;28;47551;-39
2023/12/14 11:36:03;;;;;;;2.20;0.90;;;25.20;31.40;;;;;;4984091;28;45417;-39
2023/12/14 11:38:31;;;;;;;2.07;1.07;;;25.20;31.40;;;;;;4964281;28;48008;-39
2023/12/14 11:40:57;;;;;;;1.55;1.00;;;25.20;31.40;;;;;;4949738;28;45677;-39
2023/12/14 11:43:24;;;;;;;1.42;0.90;;;25.20;31.40;;;;;;4963617;28;46355;-38
2023/12/14 11:45:50;;;;;;;1.15;0.70;;;25.20;31.40;;;;;;4973691;28;45245;-40
2023/12/14 11:48:16;;;;;;;1.88;0.90;;;25.30;31.40;;;;;;4972377;28;45481;-38
2023/12/14 11:50:42;;;;;;;1.13;1.02;;;25.20;31.30;;;;;;4981186;28;45508;-38
2023/12/14 11:53:08;;;;;;;1.48;0.95;;;25.30;31.40;;;;;;4939833;28;45195;-40
2023/12/14 11:55:35;;;;;;;2.13;0.85;;;25.30;31.30;;;;;;4975623;28;45309;-38
2023/12/14 11:58:01;;;;;;;1.27;0.70;;;25.30;31.30;;;;;;4991198;28;45688;-39
2023/12/14 12:00:30;;;;;;;1.23;1.00;;;25.30;31.30;;;;;;4978852;28;45251;-39
2023/12/14 12:03:16;;;;;;;1.40;1.00;;;25.30;31.40;;;;;;4968241;28;46769;-41
2023/12/14 12:05:42;;;;;;;1.90;0.90;;;25.30;31.30;;;;;;4961054;28;45744;-38
2023/12/14 12:08:08;;;;;;;1.17;0.90;;;25.30;31.30;;;;;;4991024;28;45460;-38
2023/12/14 12:10:34;;;;;;;1.13;0.80;;;25.40;31.30;;;;;;4980339;28;45341;-38
2023/12/14 12:13:01;;;;;;;2.27;1.10;;;25.40;31.30;;;;;;4991272;28;45497;-39
2023/12/14 12:15:28;;;;;;;1.10;0.90;;;25.30;31.30;;;;;;4970284;28;46846;-39
2023/12/14 12:17:53;;;;;;;1.42;0.80;;;25.40;31.30;;;;;;4970945;28;45618;-39
2023/12/14 12:20:19;;;;;;;1.10;0.70;;;25.30;31.20;;;;;;4985789;28;45218;-39
2023/12/14 12:22:45;;;;;;;1.90;0.73;;;25.40;31.30;;;;;;4971659;28;47368;-39
2023/12/14 12:25:10;;;;;;;1.52;0.93;;;25.40;31.30;;;;;;4935292;28;45857;-38
2023/12/14 12:27:36;;;;;;;1.35;0.82;;;25.40;31.30;;;;;;4982617;28;45605;-39
2023/12/14 12:30:12;;;;;;;1.50;0.85;;;25.40;31.30;;;;;;4992360;28;45666;-40
2023/12/14 12:32:37;;;;;;;1.63;0.85;;;25.40;31.90;;;;;;4962789;28;45999;-39
2023/12/14 12:35:06;;;;;;;1.10;0.68;;;25.40;31.30;;;;;;4986985;28;44752;-39
2023/12/14 12:37:31;;;;;;;1.10;0.75;;;25.40;31.20;;;;;;4966541;28;45593;-40
2023/12/14 12:39:57;;;;;;;1.10;0.77;;;25.40;31.20;;;;;;4972463;28;45484;-39
2023/12/14 12:42:23;;;;;;;1.25;0.80;;;25.40;31.30;;;;;;4949306;28;46369;-39
2023/12/14 12:44:48;;;;;;;0.80;0.60;;;25.40;31.20;;;;;;4993128;28;45461;-40
2023/12/14 12:47:14;;;;;;;1.77;0.95;;;25.40;31.20;;;;;;4968781;28;44941;-39
2023/12/14 12:49:39;;;;;;;1.40;0.80;;;25.40;31.20;;;;;;4983743;28;45303;-39
2023/12/14 12:52:05;;;;;;;2.10;0.90;;;25.50;31.20;;;;;;4980648;28;46397;-40
2023/12/14 12:54:32;;;;;;;1.15;0.80;;;25.40;31.20;;;;;;4985877;28;45324;-39
2023/12/14 12:56:57;;;;;;;2.13;0.90;;;25.40;31.20;;;;;;4962986;28;45786;-39
2023/12/14 12:59:23;;;;;;;2.05;0.80;;;25.40;31.20;;;;;;4989496;28;46191;-39
2023/12/14 13:01:48;;;;;;;1.50;0.60;;;25.50;31.30;;;;;;4952357;28;45250;-39
2023/12/14 13:04:18;;;;;;;1.23;0.70;;;25.40;31.40;;;;;;4989662;28;45379;-39
2023/12/14 13:06:44;;;;;;;1.30;0.90;;;25.50;31.20;;;;;;4978923;28;45099;-42
2023/12/14 13:09:10;;;;;;;1.00;0.80;;;25.40;31.20;;;;;;4985313;28;45216;-39
2023/12/14 13:11:35;;;;;;;1.50;1.00;;;25.50;31.20;;;;;;4953086;28;45155;-41
2023/12/14 13:14:04;;;;;;;1.88;1.00;;;25.50;31.20;;;;;;4970623;28;45310;-39
2023/12/14 13:16:30;;;;;;;2.08;0.90;;;25.40;31.10;;;;;;4969403;28;45606;-39
2023/12/14 13:18:55;;;;;;;1.08;0.70;;;25.50;31.20;;;;;;4987863;28;45473;-39
2023/12/14 13:21:22;;;;;;;1.13;0.70;;;25.50;31.20;;;;;;4981058;28;45516;-40
2023/12/14 13:23:47;;;;;;;1.30;0.90;;;25.50;31.20;;;;;;4986807;28;47336;-39
2023/12/14 13:26:13;;;;;;;1.30;0.80;;;25.50;31.20;;;;;;4976767;28;45330;-40
2023/12/14 13:28:38;;;;;;;1.30;0.80;;;25.50;31.80;;;;;;4972895;28;50437;-39
2023/12/14 13:31:04;;;;;;;2.03;1.07;;;25.50;31.20;;;;;;4967021;28;46075;-39
2023/12/14 13:33:29;;;;;;;1.67;0.80;;;25.50;31.20;;;;;;4980681;28;45082;-39
2023/12/14 13:35:55;;;;;;;1.20;0.80;;;25.50;31.20;;;;;;4951968;28;45633;-39
2023/12/14 13:38:21;;;;;;;1.53;0.90;;;25.50;31.20;;;;;;4987128;28;45810;-38
2023/12/14 13:40:46;;;;;;;1.13;0.70;;;25.50;31.10;;;;;;4949900;28;46599;-40
2023/12/14 13:43:12;;;;;;;1.00;0.70;;;25.50;31.10;;;;;;4987096;28;45313;-39
2023/12/14 13:45:38;;;;;;;1.45;0.73;;;25.50;31.20;;;;;;4968513;28;45299;-39
2023/12/14 13:48:04;;;;;;;1.27;0.82;;;25.50;31.10;;;;;;4985000;28;45391;-39
2023/12/14 13:50:30;;;;;;;1.13;0.80;;;25.50;31.80;;;;;;4972731;28;46014;-39
2023/12/14 13:52:55;;;;;;;1.30;0.80;;;25.50;31.10;;;;;;4986900;28;45613;-39
2023/12/14 13:55:22;;;;;;;1.30;0.90;;;25.50;31.10;;;;;;4972811;28;46123;-39
2023/12/14 13:57:48;;;;;;;1.20;0.80;;;25.50;31.20;;;;;;4960000;28;45852;-39
2023/12/14 14:00:14;;;;;;;2.17;0.93;;;25.50;31.80;;;;;;4972582;28;45598;-40
2023/12/14 14:02:40;;;;;;;1.40;0.82;;;25.50;31.10;;;;;;4976037;28;45591;-39
2023/12/14 14:05:06;;;;;;;1.40;0.80;;;25.50;31.10;;;;;;4982372;28;45316;-39
2023/12/14 14:07:32;;;;;;;1.40;0.80;;;25.50;31.10;;;;;;4977228;28;45648;-39
2023/12/14 14:09:57;;;;;;;1.47;0.70;;;25.50;31.10;;;;;;4984318;28;45675;-39
2023/12/14 14:12:23;;;;;;;1.30;0.77;;;25.50;31.10;;;;;;4951198;28;45450;-38
2023/12/14 14:14:49;;;;;;;1.03;0.70;;;25.50;31.10;;;;;;4962733;28;45725;-39
2023/12/14 14:17:15;;;;;;;1.02;0.82;;;25.50;31.10;;;;;;4946389;28;45318;-38
2023/12/14 14:19:40;;;;;;;1.00;0.70;;;25.50;31.10;;;;;;4958915;28;46304;-38
2023/12/14 14:22:06;;;;;;;1.38;0.60;;;25.50;31.10;;;;;;4952681;28;45289;-40
2023/12/14 14:24:31;;;;;;;0.95;0.70;;;25.50;31.10;;;;;;4965908;28;45036;-40
2023/12/14 14:26:58;;;;;;;1.20;0.80;;;25.50;31.10;;;;;;4957172;28;45452;-38
2023/12/14 14:29:24;;;;;;;1.83;0.77;;;25.50;31.10;;;;;;4980754;28;45580;-39
2023/12/14 14:31:49;;;;;;;0.83;0.63;;;25.50;31.10;;;;;;4944528;28;47085;-39
2023/12/14 14:34:15;;;;;;;1.40;0.80;;;25.50;31.10;;;;;;4948620;28;45386;-39
2023/12/14 14:36:40;;;;;;;1.03;0.73;;;25.50;31.10;;;;;;4936123;28;45313;-39
2023/12/14 14:39:06;;;;;;;0.90;0.77;;;25.50;31.10;;;;;;4961978;28;45616;-39
2023/12/14 14:41:31;;;;;;;0.93;0.70;;;25.50;31.10;;;;;;4952547;28;45352;-39
2023/12/14 14:43:57;;;;;;;1.50;0.77;;;25.50;31.10;;;;;;4966778;28;45548;-39
2023/12/14 14:46:23;;;;;;;0.88;0.60;;;25.50;31.00;;;;;;4949563;28;45612;-39
2023/12/14 14:48:48;;;;;;;0.80;0.60;;;25.50;31.70;;;;;;4955702;28;45294;-39
2023/12/14 14:51:14;;;;;;;1.10;0.70;;;25.50;31.10;;;;;;4958391;28;45251;-39
2023/12/14 14:53:42;;;;;;;1.17;0.77;;;25.50;31.10;;;;;;4944732;28;45570;-39
2023/12/14 14:56:11;;;;;;;1.30;0.80;;;25.50;31.00;;;;;;4958370;28;45612;-39
2023/12/14 14:58:37;;;;;;;0.60;0.60;;;25.50;31.00;;;;;;4956169;28;46031;-38
2023/12/14 15:01:02;;;;;;;1.38;0.73;;;25.50;31.10;;;;;;4959082;28;46485;-39
2023/12/14 15:03:28;;;;;;;0.90;0.70;;;25.50;31.10;;;;;;4963164;28;46434;-39
2023/12/14 15:05:54;;;;;;;0.70;0.70;;;25.50;31.00;;;;;;4952101;28;45243;-38
2023/12/14 15:08:19;;;;;;;0.80;0.70;;;25.50;31.10;;;;;;4960285;28;45195;-39
2023/12/14 15:10:45;;;;;;;1.33;0.63;;;25.50;31.10;;;;;;4953277;28;46664;-39
2023/12/14 15:13:10;;;;;;;1.00;0.70;;;25.50;31.10;;;;;;4978249;28;45704;-39
2023/12/14 15:15:38;;;;;;;1.17;0.60;;;25.50;31.10;;;;;;4961851;28;46477;-39
2023/12/14 15:18:03;;;;;;;0.63;0.60;;;25.50;31.10;;;;;;4976304;28;45361;-39
2023/12/14 15:20:29;;;;;;;0.80;0.63;;;25.50;31.10;;;;;;5173767;23;45726;-42
2023/12/14 15:22:55;;;;;;;0.77;0.70;;;25.50;31.10;;;;;;4961987;28;45756;-42
2023/12/14 15:25:21;;;;;;;0.60;0.60;;;25.50;31.10;;;;;;4954411;28;46111;-43
2023/12/14 15:27:46;;;;;;;1.10;0.70;;;25.50;31.10;;;;;;4962315;28;46142;-42
2023/12/14 15:30:13;;;;;;;0.85;0.63;;;25.50;31.10;;;;;;4959479;28;45190;-43
2023/12/14 15:32:39;;;;;;;0.90;0.65;;;25.40;31.00;;;;;;4945251;28;45715;-42
2023/12/14 15:35:05;;;;;;;0.80;0.70;;;25.50;31.10;;;;;;4957199;28;45072;-43
2023/12/14 15:37:31;;;;;;;0.77;0.67;;;25.50;31.10;;;;;;4962792;28;45380;-42
2023/12/14 15:39:56;;;;;;;0.63;0.50;;;25.40;31.10;;;;;;4968650;28;45076;-43
2023/12/14 15:42:22;;;;;;;0.70;0.67;;;25.50;31.10;;;;;;4964165;28;45571;-42
2023/12/14 15:44:47;;;;;;;0.70;0.60;;;25.50;31.10;;;;;;4969897;28;45123;-43
2023/12/14 15:47:13;;;;;;;0.67;0.60;;;25.50;31.10;;;;;;4946082;28;45744;-42
2023/12/14 15:49:39;;;;;;;0.63;0.60;;;25.40;31.00;;;;;;4968596;28;45201;-43
2023/12/14 15:52:04;;;;;;;0.70;0.70;;;25.40;31.10;;;;;;4953917;28;45382;-43
2023/12/14 15:54:30;;;;;;;0.83;0.70;;;25.40;31.10;;;;;;4961773;28;45555;-43
2023/12/14 15:56:55;;;;;;;0.82;0.60;;;25.40;31.00;;;;;;4960699;28;46054;-42
2023/12/14 15:59:21;;;;;;;1.00;0.70;;;25.40;31.10;;;;;;4970899;28;45381;-42
2023/12/14 16:01:46;;;;;;;0.77;0.60;;;25.40;31.00;;;;;;4940241;28;45689;-42
2023/12/14 16:04:12;;;;;;;0.65;0.63;;;25.40;31.10;;;;;;4959034;28;45242;-42
2023/12/14 16:06:38;;;;;;;1.27;0.70;;;25.40;31.10;;;;;;4950307;28;45125;-43
2023/12/14 16:09:03;;;;;;;0.60;0.60;;;25.40;31.10;;;;;;4962114;28;46144;-42
2023/12/14 16:11:29;;;;;;;0.80;0.70;;;25.40;31.10;;;;;;4957269;28;45979;-42
2023/12/14 16:13:56;;;;;;;0.90;0.60;;;25.40;31.70;;;;;;4966600;28;45833;-42
2023/12/14 16:16:22;;;;;;;0.68;0.60;;;25.40;31.10;;;;;;4945964;28;47758;-42
2023/12/14 16:18:48;;;;;;;1.05;0.82;;;25.40;31.10;;;;;;4958254;28;46806;-42
2023/12/14 16:21:14;;;;;;;0.60;0.60;;;25.40;31.10;;;;;;4981366;28;45460;-42
2023/12/14 16:23:40;;;;;;;0.65;0.60;;;25.40;31.10;;;;;;5007433;28;45773;-42
2023/12/14 16:26:07;;;;;;;0.93;0.70;;;25.40;31.10;;;;;;5005179;28;45654;-43
2023/12/14 16:28:36;;;;;;;0.70;0.70;;;25.40;31.10;;;;;;4982594;28;45324;-43
2023/12/14 16:31:05;;;;;;;0.95;0.70;;;25.40;31.10;;;;;;4975523;28;46981;-42
2023/12/14 16:33:31;;;;;;;0.88;0.73;;;25.30;31.00;;;;;;4997571;28;44942;-43
2023/12/14 16:35:56;;;;;;;0.80;0.70;;;25.40;31.10;;;;;;4983274;28;46437;-42
2023/12/14 16:38:22;;;;;;;0.77;0.70;;;25.40;31.10;;;;;;4996567;28;45194;-42
2023/12/14 16:40:48;;;;;;;1.30;0.80;;;25.30;31.00;;;;;;4997892;28;45354;-41
2023/12/14 16:43:18;;;;;;;1.10;0.85;;;25.40;31.10;;;;;;5018499;28;45496;-42
2023/12/14 16:45:45;;;;;;;0.63;0.63;;;25.30;31.00;;;;;;4965475;28;45363;-42
2023/12/14 16:48:10;;;;;;;1.38;0.90;;;25.30;31.00;;;;;;5006610;28;45868;-42